Latest Coastal Weather Observations for Shark Bay Airport

IDW60701

Issued at 9:01 pm WST Saturday 30 April 2016 (issued every 10 minutes, with the page automatically refreshed every 10 minutes)

About coastal observations | Map of coastal stations | Coastal observations for WA | Marine services | Other Formats
Station Details ID: 006105 Name: SHARK BAY AIRPORT Lat: -25.89 Lon: 113.58 Height: 33.8 m
Data from the previous 72 hours. | See also: Recent months at Shark Bay Airport
Date/Time
WST
Temp

°C
Wind Pressure Rain
since 9am
mm
Weather Cloud Vis
km
Sea
Height
m
Swell
Dir
 
Speed
knots
Gust
knots
hPa Trend Height
m
Period
s
Dir
30/09:00pm 19.6 S 13 16 1017.4 - 0.0 - - - - - - -
30/08:30pm 19.6 S 12 18 1017.3 - 0.0 - - - - - - -
30/08:00pm 19.7 S 13 18 1017.2 - 0.0 - - - - - - -
30/07:30pm 19.9 S 11 14 1017.0 - 0.0 - - - - - - -
30/07:00pm 20.1 S 11 15 1016.6 - 0.0 - - - - - - -
30/06:30pm 20.6 S 10 15 1016.4 - 0.0 - - - - - - -
30/06:00pm 21.3 S 11 18 1016.1 - 0.0 - - - - - - -
30/05:30pm 22.2 SSW 14 20 1016.0 - 0.0 - - - - - - -
30/05:00pm 23.2 S 15 20 1015.8 - 0.0 - - - - - - -
30/04:30pm 24.5 S 13 18 1015.7 - 0.0 - - - - - - -
30/04:00pm 24.7 SSW 14 20 1015.5 - 0.0 - - - - - - -
30/03:30pm 24.6 SSW 15 19 1015.6 - 0.0 - - - - - - -
30/03:00pm 25.5 SSW 15 20 1015.6 - 0.0 - - - - - - -
30/02:30pm 25.1 SW 16 21 1015.6 - 0.0 - - - - - - -
30/02:00pm 26.0 SSW 15 21 1015.8 - 0.0 - - - - - - -
30/01:30pm 26.3 SSW 13 20 1016.2 - 0.0 - - - - - - -
30/01:00pm 26.2 SSE 11 16 1016.8 - 0.0 - - - - - - -
30/12:30pm 25.7 SE 11 17 1017.2 - 0.0 - - - - - - -
30/12:00pm 24.6 SE 11 17 1017.7 - 0.0 - - - - - - -
30/11:30am 24.4 SE 12 19 1018.2 - 0.0 - - - - - - -
30/11:00am 24.4 SE 11 17 1018.5 - 0.0 - - - - - - -
30/10:30am 23.9 SE 12 17 1018.8 - 0.0 - - - - - - -
30/10:00am 23.3 ESE 12 20 1019.2 - 0.0 - - - - - - -
30/09:30am 22.9 ESE 12 17 1019.3 - 0.0 - - - - - - -
30/09:00am 21.8 ESE 13 18 1019.4 - 0.0 - - - - - - -
30/08:30am 20.5 ESE 9 13 1019.2 - 0.0 - - - - - - -
30/08:00am 18.1 E 5 7 1019.2 - 0.0 - - - - - - -
30/07:30am 15.7 ESE 6 7 1018.7 - 0.0 - - - - - - -
30/07:00am 14.3 SE 6 8 1018.5 - 0.0 - - - - - - -
30/06:30am 13.4 SSE 8 9 1018.3 - 0.0 - - - - - - -
30/06:00am 13.5 SSE 7 8 1018.0 - 0.0 - - - - - - -
30/05:30am 14.0 SE 6 7 1018.1 - 0.0 - - - - - - -
30/05:00am 14.2 SSE 7 9 1017.6 - 0.0 - - - - - - -
30/04:30am 13.6 SSE 6 8 1017.5 - 0.0 - - - - - - -
30/04:00am 14.0 SSE 6 7 1017.4 - 0.0 - - - - - - -
30/03:30am 14.5 SSE 7 8 1017.2 - 0.0 - - - - - - -
30/03:00am 14.9 SSE 7 9 1017.2 - 0.0 - - - - - - -
30/02:30am 15.4 SSE 6 7 1017.2 - 0.0 - - - - - - -
30/02:00am 15.5 SSE 7 8 1017.1 - 0.0 - - - - - - -
30/01:30am 15.8 SSE 7 9 1017.0 - 0.0 - - - - - - -
30/01:00am 16.1 SSE 7 8 1017.1 - 0.0 - - - - - - -
30/12:30am 16.6 SSE 6 9 1017.3 - 0.0 - - - - - - -
30/12:00am 17.2 SSE 7 9 1017.4 - 0.0 - - - - - - -
 
Date/Time
WST
Temp

°C
Wind Pressure Rain
since 9am
mm
Weather Cloud Vis
km
Sea
Height
m
Swell
Dir
 
Speed
knots
Gust
knots
hPa Trend Height
m
Period
s
Dir
29/11:30pm 17.9 SSE 7 9 1017.8 - 0.0 - - - - - - -
29/11:00pm 19.0 S 9 13 1017.8 - 0.0 - - - - - - -
29/10:30pm 19.3 S 11 16 1018.1 - 0.0 - - - - - - -
29/10:00pm 19.2 S 9 13 1018.2 - 0.0 - - - - - - -
29/09:30pm 19.6 S 11 15 1018.2 - 0.0 - - - - - - -
29/09:00pm 19.2 S 10 13 1018.0 - 0.0 - - - - - - -
29/08:30pm 19.7 S 12 17 1018.0 - 0.0 - - - - - - -
29/08:00pm 19.8 S 12 17 1017.7 - 0.0 - - - - - - -
29/07:30pm 20.2 S 13 18 1017.5 - 0.0 - - - - - - -
29/07:00pm 20.4 S 12 16 1017.3 - 0.0 - - - - - - -
29/06:30pm 21.0 S 14 19 1016.9 - 0.0 - - - - - - -
29/06:00pm 21.4 S 13 18 1016.4 - 0.0 - - - - - - -
29/05:30pm 22.4 S 14 20 1016.2 - 0.0 - - - - - - -
29/05:00pm 23.2 SSW 14 20 1016.3 - 0.0 - - - - - - -
29/04:30pm 24.1 SSW 13 18 1016.3 - 0.0 - - - - - - -
29/04:00pm 24.6 SSW 13 17 1016.3 - 0.0 - - - - - - -
29/03:30pm 25.3 SW 13 19 1016.2 - 0.0 - - - - - - -
29/03:00pm 25.5 SW 15 19 1016.1 - 0.0 - - - - - - -
29/02:30pm 26.4 S 13 19 1016.1 - 0.0 - - - - - - -
29/02:00pm 25.8 S 12 18 1016.4 - 0.0 - - - - - - -
29/01:30pm 25.9 S 14 21 1016.6 - 0.0 - - - - - - -
29/01:00pm 25.7 S 15 20 1016.8 - 0.0 - - - - - - -
29/12:30pm 26.1 S 10 16 1017.0 - 0.0 - - - - - - -
29/12:00pm 24.8 SSE 8 13 1017.4 - 0.0 - - - - - - -
29/11:30am 24.5 SE 10 17 1017.9 - 0.0 - - - - - - -
29/11:00am 23.5 SE 9 16 1018.2 - 0.0 - - - - - - -
29/10:30am 23.4 SE 9 13 1018.7 - 0.0 - - - - - - -
29/10:00am 22.7 ESE 9 14 1018.9 - 0.0 - - - - - - -
29/09:30am 21.9 ESE 9 13 1019.0 - 0.0 - - - - - - -
29/09:00am 21.3 ESE 9 13 1018.9 - 0.0 - - - - - - -
29/08:30am 20.0 E 7 10 1018.8 - 0.0 - - - - - - -
29/08:00am 17.8 ESE 5 6 1018.5 - 0.0 - - - - - - -
29/07:30am 14.2 ESE 5 6 1018.2 - 0.0 - - - - - - -
29/07:00am 12.0 SE 7 7 1018.0 - 0.0 - - - - - - -
29/06:30am 12.8 SE 6 9 1017.9 - 0.0 - - - - - - -
29/06:00am 12.7 SE 5 5 1017.9 - 0.0 - - - - - - -
29/05:30am 12.5 ESE 4 5 1017.7 - 0.0 - - - - - - -
29/05:00am 13.1 SE 5 6 1017.6 - 0.0 - - - - - - -
29/04:30am 13.2 SE 6 7 1017.5 - 0.0 - - - - - - -
29/04:00am 13.3 SE 6 7 1017.4 - 0.0 - - - - - - -
29/03:30am 13.7 SE 5 7 1017.7 - 0.0 - - - - - - -
29/03:00am 13.6 SSE 7 7 1017.7 - 0.0 - - - - - - -
29/02:30am 14.0 SSE 6 7 1017.7 - 0.0 - - - - - - -
29/02:00am 14.3 SSE 7 8 1017.6 - 0.0 - - - - - - -
29/01:30am 15.0 SSE 7 8 1017.5 - 0.0 - - - - - - -
29/01:00am 15.7 SSE 8 10 1017.5 - 0.0 - - - - - - -
29/12:30am 14.7 SSE 7 8 1017.7 - 0.0 - - - - - - -
29/12:00am 14.4 SSE 7 9 1017.6 - 0.0 - - - - - - -
 
Date/Time
WST
Temp

°C
Wind Pressure Rain
since 9am
mm
Weather Cloud Vis
km
Sea
Height
m
Swell
Dir
 
Speed
knots
Gust
knots
hPa Trend Height
m
Period
s
Dir
28/11:30pm 14.7 S 8 9 1017.6 - 0.0 - - - - - - -
28/11:00pm 14.6 SSE 6 7 1017.6 - 0.0 - - - - - - -
28/10:30pm 15.8 S 7 7 1017.5 - 0.0 - - - - - - -
28/10:00pm 16.7 S 7 8 1017.6 - 0.0 - - - - - - -
28/09:30pm 17.5 S 8 10 1017.6 - 0.0 - - - - - - -
28/09:00pm 17.7 S 8 11 1017.7 - 0.0 - - - - - - -
28/08:30pm 17.9 S 9 12 1017.6 - 0.0 - - - - - - -
28/08:00pm 18.2 S 8 11 1017.6 - 0.0 - - - - - - -
28/07:30pm 18.7 S 10 13 1017.4 - 0.0 - - - - - - -
28/07:00pm 19.0 S 11 16 1017.1 - 0.0 - - - - - - -
28/06:30pm 19.4 S 12 17 1016.9 - 0.0 - - - - - - -
28/06:00pm 19.9 S 12 17 1016.7 - 0.0 - - - - - - -
28/05:30pm 20.7 S 15 20 1016.5 - 0.0 - - - - - - -
28/05:00pm 21.7 SSW 16 21 1016.2 - 0.0 - - - - - - -
28/04:30pm 22.8 S 15 19 1016.0 - 0.0 - - - - - - -
28/04:00pm 22.9 S 13 19 1016.1 - 0.0 - - - - - - -
28/03:30pm 22.4 S 13 19 1016.1 - 0.0 - - - - - - -
28/03:00pm 23.2 S 15 21 1015.8 - 0.0 - - - - - - -
28/02:30pm 23.1 S 13 19 1015.8 - 0.0 - - - - - - -
28/02:00pm 22.2 S 12 17 1016.1 - 0.0 - - - - - - -
28/01:30pm 21.6 SSE 12 19 1016.3 - 0.0 - - - - - - -
28/01:00pm 20.4 SSE 13 16 1016.8 - 0.0 - - - - - - -
28/12:30pm 20.8 S 12 18 1017.3 - 0.0 - - - - - - -
28/12:00pm 20.1 S 11 16 1017.4 - 0.0 - - - - - - -
28/11:30am 20.6 SSE 14 17 1017.5 - 0.0 - - - - - - -
28/11:00am 20.8 SSE 10 14 1017.8 - 0.0 - - - - - - -
28/10:30am 20.6 S 14 19 1018.4 - 0.0 - - - - - - -
28/10:00am 21.0 SSE 12 19 1018.2 - 0.0 - - - - - - -
28/09:30am 20.2 SSE 10 14 1018.2 - 0.0 - - - - - - -
28/09:00am 19.1 SSE 8 11 1018.1 - 0.0 - - - - - - -
28/08:30am 18.2 SSE 7 9 1017.9 - 0.0 - - - - - - -
28/08:00am 17.0 SSE 7 10 1017.5 - 0.0 - - - - - - -
28/07:30am 16.3 SSE 6 7 1017.3 - 0.0 - - - - - - -
28/07:00am 16.1 SSE 5 8 1016.8 - 0.0 - - - - - - -
28/06:30am 16.1 S 6 8 1016.7 - 0.0 - - - - - - -
28/06:00am 16.2 SSE 7 9 1016.2 - 0.0 - - - - - - -
28/05:30am 16.4 SSE 7 11 1016.1 - 0.0 - - - - - - -
28/05:00am 16.9 SSE 8 11 1015.9 - 0.0 - - - - - - -
28/04:30am 17.0 SSE 7 9 1015.9 - 0.0 - - - - - - -
28/04:00am 16.8 SSE 8 10 1015.7 - 0.0 - - - - - - -
28/03:30am 16.1 SSE 7 9 1015.9 - 0.0 - - - - - - -
28/03:00am 16.2 SSE 6 8 1015.9 - 0.0 - - - - - - -
28/02:30am 16.4 SSE 5 6 1016.0 - 0.0 - - - - - - -
28/02:00am 17.1 SE 6 7 1016.1 - 0.0 - - - - - - -
28/01:30am 17.1 SSE 6 7 1016.2 - 0.0 - - - - - - -
28/01:00am 16.5 SSE 6 6 1016.1 - 0.0 - - - - - - -
28/12:30am 16.8 SSE 6 7 1016.4 - 0.0 - - - - - - -
28/12:00am 16.8 S 6 8 1016.5 - 0.0 - - - - - - -
 
Date/Time
WST
Temp

°C
Wind Pressure Rain
since 9am
mm
Weather Cloud Vis
km
Sea
Height
m
Swell
Dir
 
Speed
knots
Gust
knots
hPa Trend Height
m
Period
s
Dir
27/11:30pm 17.6 S 6 9 1016.3 - 0.0 - - - - - - -
27/11:00pm 17.7 S 6 7 1016.5 - 0.0 - - - - - - -
27/10:30pm 18.8 S 12 15 1016.7 - 0.0 - - - - - - -
27/10:00pm 18.5 S 7 10 1016.7 - 0.0 - - - - - - -
27/09:30pm 18.8 S 8 13 1016.6 - 0.0 - - - - - - -

Other Formats:

Comma delimited format used in spreadsheet applications
http://www.bom.gov.au/fwo/IDW60701/IDW60701.95402.axf

JavaScript Object Notation format (JSON) in row-major order
http://www.bom.gov.au/fwo/IDW60701/IDW60701.95402.json